Time;durP1;ratioP1;P1;durP2;ratioP2;P2;SDS_P1;SDS_P2;PMS_P1;PMS_P2;Temp;Humidity;BMP_temperature;BMP_pressure;BME280_temperature;BME280_humidity;BME280_pressure;Samples;Min_cycle;Max_cycle;Signal;HPM_P1;HPM_P2
2023/05/20 00:01:06;;;;;;;8.80;6.70;;;;;;;15.36;74.25;97255.91;5010023;28;20707;-74
2023/05/20 00:04:26;;;;;;;7.33;6.10;;;;;;;15.59;72.14;97247.53;5009267;28;20193;-73
2023/05/20 00:07:47;;;;;;;8.47;5.97;;;;;;;15.90;70.12;97252.53;5008315;28;20253;-68
2023/05/20 00:11:08;;;;;;;9.97;6.00;;;;;;;16.13;69.59;97249.28;5007106;28;20195;-69
2023/05/20 00:14:28;;;;;;;7.43;6.20;;;;;;;16.21;70.21;97247.00;5009461;28;20187;-66
2023/05/20 00:17:49;;;;;;;11.67;6.07;;;;;;;16.21;70.03;97239.19;5009400;28;20256;-67
2023/05/20 00:21:10;;;;;;;7.30;6.03;;;;;;;16.21;69.71;97236.56;5007898;28;20231;-66
2023/05/20 00:24:30;;;;;;;7.90;5.57;;;;;;;16.65;67.78;97236.25;5006919;28;20191;-69
2023/05/20 00:27:51;;;;;;;7.70;6.07;;;;;;;16.80;66.99;97240.47;5009367;28;20265;-70
2023/05/20 00:31:13;;;;;;;9.90;6.00;;;;;;;17.00;64.91;97237.34;5009227;28;20675;-65
2023/05/20 00:34:33;;;;;;;9.00;5.07;;;;;;;17.18;64.52;97242.25;5006917;28;20191;-66
2023/05/20 00:37:54;;;;;;;9.57;6.20;;;;;;;17.13;64.69;97232.09;5007618;28;20651;-67
2023/05/20 00:41:15;;;;;;;7.47;5.47;;;;;;;17.10;64.62;97243.63;5006808;28;20191;-67
2023/05/20 00:44:38;;;;;;;8.90;5.30;;;;;;;17.05;64.81;97235.25;5008935;28;20234;-66
2023/05/20 00:48:00;;;;;;;8.07;5.87;;;;;;;17.08;64.40;97244.69;5006731;28;20191;-66
2023/05/20 00:51:20;;;;;;;9.23;5.33;;;;;;;17.14;64.22;97240.81;5007138;28;20736;-66
2023/05/20 00:54:41;;;;;;;8.33;5.10;;;;;;;17.04;65.11;97232.75;5007121;28;20281;-68
2023/05/20 00:58:02;;;;;;;11.63;5.83;;;;;;;16.87;65.70;97212.97;5007563;28;20806;-66
2023/05/20 01:01:23;;;;;;;8.67;5.60;;;;;;;16.83;65.92;97218.50;5008767;28;20195;-66
2023/05/20 01:04:46;;;;;;;7.70;5.73;;;;;;;16.90;65.59;97209.28;5005475;28;20187;-67
2023/05/20 01:08:06;;;;;;;8.47;6.03;;;;;;;16.90;65.41;97209.28;5005379;28;20214;-70
2023/05/20 01:11:27;;;;;;;8.57;5.57;;;;;;;16.92;65.33;97203.00;5008485;28;20188;-66
2023/05/20 01:14:48;;;;;;;9.80;5.63;;;;;;;16.93;65.32;97202.09;5008527;28;20257;-67
2023/05/20 01:18:12;;;;;;;8.50;5.87;;;;;;;16.96;64.52;97188.78;4990674;28;20199;-67
2023/05/20 01:21:32;;;;;;;8.40;5.60;;;;;;;17.12;64.25;97192.97;4990405;28;20227;-66
2023/05/20 01:24:53;;;;;;;7.93;5.70;;;;;;;16.95;65.45;97196.75;5007400;28;20204;-66
2023/05/20 01:28:16;;;;;;;7.27;5.30;;;;;;;16.79;66.40;97180.44;5007099;28;20216;-66
2023/05/20 01:31:37;;;;;;;6.37;5.13;;;;;;;16.72;66.16;97174.78;4989706;28;20195;-66
2023/05/20 01:34:58;;;;;;;7.00;5.33;;;;;;;16.75;66.45;97163.28;5006890;28;20222;-66
2023/05/20 01:38:19;;;;;;;8.20;6.30;;;;;;;16.89;65.77;97158.75;5006667;28;20223;-72
2023/05/20 01:41:39;;;;;;;10.37;5.80;;;;;;;16.91;65.84;97161.28;5007928;28;20195;-69
2023/05/20 01:45:00;;;;;;;7.47;5.80;;;;;;;16.72;66.71;97184.38;5006842;28;20686;-67
2023/05/20 01:48:21;;;;;;;10.10;5.67;;;;;;;16.88;65.12;97154.47;5006026;28;20192;-68
2023/05/20 01:51:41;;;;;;;7.77;5.53;;;;;;;16.81;65.93;97162.84;5005238;28;20277;-66
2023/05/20 01:55:02;;;;;;;9.27;5.90;;;;;;;16.91;65.63;97161.28;5007055;28;20569;-72
2023/05/20 01:58:23;;;;;;;9.23;5.67;;;;;;;16.89;65.84;97152.69;5007854;28;20751;-76
2023/05/20 02:01:44;;;;;;;10.40;5.73;;;;;;;16.95;65.40;97149.66;5005929;28;20191;-70
2023/05/20 02:05:05;;;;;;;7.67;5.33;;;;;;;16.95;64.64;97149.66;5004384;28;20187;-66
2023/05/20 02:08:26;;;;;;;7.90;5.60;;;;;;;16.97;64.83;97158.22;5005129;28;20671;-67
2023/05/20 02:11:46;;;;;;;8.90;6.17;;;;;;;17.00;64.82;97155.41;5006419;28;20192;-67
2023/05/20 02:15:07;;;;;;;6.80;5.73;;;;;;;16.97;64.85;97169.53;5005806;28;20196;-67
2023/05/20 02:18:28;;;;;;;9.23;5.60;;;;;;;17.02;64.32;97164.00;5006647;28;20301;-66
2023/05/20 02:21:49;;;;;;;7.43;5.27;;;;;;;17.09;64.40;97168.69;5004713;28;20223;-67
2023/05/20 02:25:10;;;;;;;11.00;5.87;;;;;;;17.06;64.53;97168.06;5007205;28;20813;-66
2023/05/20 02:28:31;;;;;;;15.27;6.00;;;;;;;17.01;64.03;97157.06;5007504;28;20191;-66
2023/05/20 02:31:51;;;;;;;6.27;5.67;;;;;;;17.06;64.57;97183.78;5005219;28;20848;-67
2023/05/20 02:35:12;;;;;;;8.20;5.67;;;;;;;17.07;63.81;97154.03;5006154;28;20193;-68
2023/05/20 02:38:33;;;;;;;6.77;5.23;;;;;;;17.21;62.66;97166.97;5005113;28;20726;-67
2023/05/20 02:41:53;;;;;;;7.03;5.83;;;;;;;17.17;63.63;97162.06;5007702;28;20196;-67
2023/05/20 02:45:14;;;;;;;10.13;5.70;;;;;;;17.15;63.02;97161.34;5006145;28;20203;-67
2023/05/20 02:48:35;;;;;;;10.70;5.83;;;;;;;17.16;64.07;97165.63;5005974;28;20242;-67
2023/05/20 02:51:56;;;;;;;7.03;5.33;;;;;;;17.08;64.67;97153.91;5004678;28;20194;-67
2023/05/20 02:55:16;;;;;;;8.63;6.10;;;;;;;16.97;64.62;97150.38;5007511;28;20203;-66
2023/05/20 02:58:38;;;;;;;10.50;5.93;;;;;;;17.02;64.51;97156.97;5005970;28;20240;-69
2023/05/20 03:01:58;;;;;;;9.93;5.70;;;;;;;16.95;65.62;97160.97;5007057;28;20193;-66
2023/05/20 03:05:20;;;;;;;8.67;6.07;;;;;;;16.83;65.71;97155.72;5004427;28;20191;-67
2023/05/20 03:08:41;;;;;;;8.80;5.87;;;;;;;16.84;66.04;97146.94;5004501;28;20752;-68
2023/05/20 03:12:02;;;;;;;6.47;5.63;;;;;;;16.80;66.14;97140.22;5005836;28;20199;-67
2023/05/20 03:15:23;;;;;;;10.87;5.23;;;;;;;16.90;65.58;97139.50;4989348;28;20691;-67
2023/05/20 03:18:43;;;;;;;8.50;5.80;;;;;;;16.87;65.92;97157.19;4991669;28;20983;-67
2023/05/20 03:22:04;;;;;;;12.13;5.93;;;;;;;17.01;64.90;97147.44;5008063;28;20192;-66
2023/05/20 03:25:25;;;;;;;8.43;5.60;;;;;;;17.04;64.58;97149.84;5008520;28;20706;-66
2023/05/20 03:29:02;;;;;;;8.53;5.90;;;;;;;17.27;63.26;97158.69;5008551;28;20200;-70
2023/05/20 03:32:24;;;;;;;8.23;5.57;;;;;;;17.34;63.87;97162.56;5009312;28;20246;-69
2023/05/20 03:35:45;;;;;;;10.80;5.83;;;;;;;17.56;63.36;97167.97;5007742;28;20245;-67
2023/05/20 03:39:06;;;;;;;8.50;5.53;;;;;;;17.98;62.62;97147.47;5007985;28;20610;-69
2023/05/20 03:42:27;;;;;;;7.60;5.70;;;;;;;18.09;62.68;97163.25;5008848;28;20198;-71
2023/05/20 03:45:48;;;;;;;13.07;5.97;;;;;;;18.40;60.47;97149.53;5008960;28;20198;-75
2023/05/20 03:49:09;;;;;;;9.87;5.80;;;;;;;18.99;56.81;97163.38;5006900;28;20619;-68
2023/05/20 03:52:30;;;;;;;8.50;6.23;;;;;;;19.24;58.74;97161.38;5008553;28;20211;-73
2023/05/20 03:55:53;;;;;;;7.67;6.17;;;;;;;19.65;58.64;97173.03;5008289;28;20253;-70
2023/05/20 03:59:16;;;;;;;6.17;5.07;;;;;;;19.84;57.65;97175.88;5008759;28;20232;-69
2023/05/20 04:02:37;;;;;;;10.53;5.83;;;;;;;19.82;58.02;97189.13;5009300;28;20241;-73
2023/05/20 04:05:58;;;;;;;8.30;6.47;;;;;;;19.85;57.35;97201.19;5006418;28;20215;-74
2023/05/20 04:09:20;;;;;;;7.03;5.83;;;;;;;19.43;57.98;97206.25;5007932;28;20218;-71
2023/05/20 04:12:42;;;;;;;7.63;5.23;;;;;;;19.33;57.69;97205.31;5008532;28;20977;-66
2023/05/20 04:16:04;;;;;;;7.93;5.97;;;;;;;19.26;59.13;97209.34;5008342;28;20214;-73
2023/05/20 04:19:27;;;;;;;11.83;6.27;;;;;;;19.73;58.89;97208.25;5007024;28;20288;-71
2023/05/20 04:22:47;;;;;;;10.37;6.00;;;;;;;20.32;58.02;97198.19;5006117;28;20625;-67
2023/05/20 04:26:09;;;;;;;8.30;5.90;;;;;;;20.52;56.59;97201.81;5007880;28;20205;-67
2023/05/20 04:29:33;;;;;;;9.00;6.13;;;;;;;20.78;55.16;97198.69;5006933;28;20205;-70
2023/05/20 04:32:53;;;;;;;10.23;6.00;;;;;;;21.04;53.52;97209.69;5006741;28;20209;-67
2023/05/20 04:36:15;;;;;;;7.80;5.97;;;;;;;20.93;53.66;97207.94;5006259;28;20621;-66
2023/05/20 04:39:35;;;;;;;8.10;4.83;;;;;;;21.07;53.00;97225.22;5006278;28;20214;-70
2023/05/20 04:42:57;;;;;;;6.40;5.40;;;;;;;20.61;53.59;97227.38;5007744;28;20201;-67
2023/05/20 04:46:19;;;;;;;8.97;5.43;;;;;;;20.56;53.89;97227.75;5006986;28;20265;-67
2023/05/20 04:49:40;;;;;;;8.10;5.50;;;;;;;19.86;56.04;97227.38;5007452;28;20212;-66
2023/05/20 04:53:00;;;;;;;9.03;6.23;;;;;;;19.31;57.17;97227.34;5006358;28;20269;-71
2023/05/20 04:56:21;;;;;;;8.03;5.77;;;;;;;18.83;58.34;97226.72;5007570;28;20201;-76
2023/05/20 04:59:44;;;;;;;7.83;5.50;;;;;;;18.66;59.00;97221.91;5006836;28;20229;-75
2023/05/20 05:03:06;;;;;;;11.17;5.83;;;;;;;18.57;59.00;97225.19;4989983;28;20246;-69
2023/05/20 05:06:28;;;;;;;8.10;5.83;;;;;;;18.60;59.72;97225.81;5005824;28;20224;-72
2023/05/20 05:09:49;;;;;;;9.10;6.43;;;;;;;18.64;59.67;97221.16;5006483;28;20196;-73
2023/05/20 05:13:13;;;;;;;14.20;6.87;;;;;;;18.63;59.54;97229.97;5006839;28;20196;-68
2023/05/20 05:16:37;;;;;;;6.97;6.17;;;;;;;18.56;59.90;97221.75;5006837;28;20197;-69
2023/05/20 05:19:57;;;;;;;9.17;5.23;;;;;;;18.62;59.63;97230.94;5006808;28;20382;-67
2023/05/20 05:23:19;;;;;;;12.63;6.47;;;;;;;18.73;59.46;97231.00;5005800;28;20196;-67
2023/05/20 05:26:39;;;;;;;8.07;5.50;;;;;;;18.75;59.12;97234.34;5006893;28;20249;-67
2023/05/20 05:30:00;;;;;;;7.43;6.03;;;;;;;18.67;60.27;97229.63;5008104;28;20639;-68
2023/05/20 05:33:22;;;;;;;10.27;5.87;;;;;;;18.69;59.98;97242.66;5005795;28;20283;-67
2023/05/20 05:36:43;;;;;;;9.00;6.47;;;;;;;18.65;60.02;97251.69;5004913;28;20203;-66
2023/05/20 05:40:04;;;;;;;9.80;6.53;;;;;;;18.79;60.01;97250.69;5006891;28;20219;-67
2023/05/20 05:43:26;;;;;;;9.23;5.50;;;;;;;18.59;59.77;97249.53;5006014;28;20736;-69
2023/05/20 05:46:47;;;;;;;7.63;5.83;;;;;;;18.74;59.84;97248.38;5007950;28;20231;-73
2023/05/20 05:50:09;;;;;;;12.10;6.27;;;;;;;19.02;58.69;97247.16;5005865;28;20797;-68
2023/05/20 05:53:29;;;;;;;8.13;5.70;;;;;;;19.10;58.55;97247.41;5004134;28;20247;-67
2023/05/20 05:56:50;;;;;;;9.43;6.67;;;;;;;19.12;58.62;97248.97;5005831;28;20192;-72
2023/05/20 06:00:11;;;;;;;9.60;6.70;;;;;;;19.30;58.27;97247.53;5006165;28;20248;-69
2023/05/20 06:03:33;;;;;;;6.67;5.87;;;;;;;19.38;57.32;97247.81;5004448;28;20227;-68
2023/05/20 06:06:53;;;;;;;7.40;5.47;;;;;;;19.64;57.48;97258.09;5004451;28;20200;-67
2023/05/20 06:10:14;;;;;;;6.93;5.83;;;;;;;19.74;58.23;97269.56;5005527;28;20189;-75
2023/05/20 06:13:35;;;;;;;11.97;6.20;;;;;;;19.65;57.61;97275.50;5005843;28;20682;-67
2023/05/20 06:16:56;;;;;;;10.50;6.33;;;;;;;19.60;57.91;97273.25;5005653;28;20583;-68
2023/05/20 06:20:16;;;;;;;9.67;6.37;;;;;;;19.04;58.32;97288.06;5004017;28;20784;-67
2023/05/20 06:23:39;;;;;;;10.70;6.63;;;;;;;19.00;58.98;97289.25;5004208;28;20216;-66
2023/05/20 06:27:00;;;;;;;7.63;5.93;;;;;;;19.15;58.89;97289.88;5004650;28;20635;-66
2023/05/20 06:30:21;;;;;;;8.93;6.17;;;;;;;19.09;59.32;97285.94;5004909;28;20198;-66
2023/05/20 06:33:42;;;;;;;9.37;6.67;;;;;;;19.18;59.06;97302.78;5003944;28;20200;-66
2023/05/20 06:37:03;;;;;;;9.77;6.30;;;;;;;19.73;58.48;97279.22;5004381;28;20197;-66
2023/05/20 06:40:25;;;;;;;9.70;5.17;;;;;;;20.10;56.55;97264.84;5005346;28;20366;-67
2023/05/20 06:43:57;;;;;;;11.60;6.20;;;;;;;20.42;55.78;97264.06;5005875;28;20197;-69
2023/05/20 06:47:38;;;;;;;7.33;5.97;;;;;;;20.42;55.88;97253.53;5004755;28;20291;-65
2023/05/20 06:50:59;;;;;;;11.80;5.57;;;;;;;20.26;55.54;97274.97;5003740;28;20205;-67
2023/05/20 06:54:24;;;;;;;9.20;5.87;;;;;;;20.06;56.80;97273.09;4991344;28;20308;-67
2023/05/20 06:57:45;;;;;;;8.77;6.23;;;;;;;20.28;56.35;97276.53;5010414;28;20283;-71
2023/05/20 07:01:09;;;;;;;6.77;6.00;;;;;;;19.86;58.00;97276.47;4992527;28;20190;-68
2023/05/20 07:04:30;;;;;;;7.33;6.00;;;;;;;19.60;58.65;97269.81;4993259;28;20282;-67
2023/05/20 07:07:52;;;;;;;8.60;6.23;;;;;;;19.42;58.89;97269.41;5007264;28;20198;-70
2023/05/20 07:11:15;;;;;;;7.70;6.37;;;;;;;19.32;60.09;97276.31;4991414;28;20201;-67
2023/05/20 07:14:36;;;;;;;8.57;6.03;;;;;;;19.37;59.55;97280.28;5010078;28;20209;-68
2023/05/20 07:17:57;;;;;;;10.70;6.63;;;;;;;19.39;60.40;97283.63;5008793;28;20526;-68
2023/05/20 07:21:19;;;;;;;9.87;6.60;;;;;;;19.61;59.07;97276.72;5006422;28;20221;-69
2023/05/20 07:24:59;;;;;;;9.43;6.27;;;;;;;19.89;57.69;97277.06;5023854;28;20263;-70
2023/05/20 07:28:21;;;;;;;8.43;6.03;;;;;;;20.05;57.12;97290.66;5007637;28;20284;-75
2023/05/20 07:31:42;;;;;;;7.63;5.73;;;;;;;19.75;58.54;97294.84;5007871;28;20204;-80
2023/05/20 07:35:03;;;;;;;7.37;5.67;;;;;;;19.49;59.18;97310.03;5009067;28;20254;-73
2023/05/20 07:38:24;;;;;;;9.03;6.90;;;;;;;19.22;59.50;97301.59;5007117;28;21509;-72
2023/05/20 07:41:47;;;;;;;9.33;6.87;;;;;;;19.08;60.90;97309.69;5007202;28;20192;-73
2023/05/20 07:45:08;;;;;;;7.97;6.47;;;;;;;19.09;60.56;97316.59;5008385;28;20243;-69
2023/05/20 07:48:29;;;;;;;8.07;6.83;;;;;;;19.23;61.04;97314.59;5008540;28;20278;-70
2023/05/20 07:51:50;;;;;;;11.47;7.47;;;;;;;19.06;61.81;97311.59;5006984;28;20197;-67
2023/05/20 07:55:11;;;;;;;8.83;6.77;;;;;;;19.36;61.12;97310.13;4989904;28;20733;-69
2023/05/20 07:58:33;;;;;;;10.07;6.83;;;;;;;19.41;59.98;97307.97;5007551;28;20221;-69
2023/05/20 08:01:55;;;;;;;8.20;6.70;;;;;;;19.67;59.52;97305.97;5007844;28;20231;-67
2023/05/20 08:05:18;;;;;;;7.90;6.87;;;;;;;20.20;58.49;97296.50;4991254;28;20295;-68
2023/05/20 08:08:40;;;;;;;7.97;6.50;;;;;;;20.31;57.60;97293.88;5005849;28;20198;-68
2023/05/20 08:12:07;;;;;;;10.87;7.07;;;;;;;20.35;58.03;97305.81;4990036;28;20187;-68
2023/05/20 08:15:29;;;;;;;10.30;6.67;;;;;;;19.96;58.35;97308.94;4991253;28;20761;-69
2023/05/20 08:18:50;;;;;;;11.13;6.47;;;;;;;19.77;56.56;97313.97;5007760;28;20228;-68
2023/05/20 08:22:11;;;;;;;8.67;5.83;;;;;;;19.46;54.91;97308.47;5006046;28;20662;-68
2023/05/20 08:25:37;;;;;;;5.73;5.03;;;;;;;19.48;54.89;97311.81;5005790;28;20239;-70
2023/05/20 08:29:00;;;;;;;9.47;6.30;;;;;;;19.64;57.81;97321.97;4990255;28;20202;-70
2023/05/20 08:32:21;;;;;;;6.27;5.63;;;;;;;19.57;56.13;97315.53;4992285;28;20193;-69
2023/05/20 08:35:41;;;;;;;8.37;5.83;;;;;;;19.69;55.23;97319.00;5007205;28;20201;-69
2023/05/20 08:39:03;;;;;;;5.83;5.23;;;;;;;19.80;54.07;97311.97;5004761;28;20234;-67
2023/05/20 08:42:25;;;;;;;7.60;5.67;;;;;;;19.93;54.31;97310.03;4974828;28;20200;-67
2023/05/20 08:45:46;;;;;;;8.87;5.37;;;;;;;19.73;54.54;97315.16;5006273;28;20264;-67
2023/05/20 08:49:09;;;;;;;7.53;4.87;;;;;;;19.25;55.92;97312.69;5006611;28;20193;-69
2023/05/20 08:52:29;;;;;;;6.50;4.80;;;;;;;19.47;55.26;97322.47;5005126;28;20203;-67
2023/05/20 08:55:56;;;;;;;6.43;4.80;;;;;;;19.45;55.24;97312.03;5004026;28;20748;-66
2023/05/20 08:59:17;;;;;;;9.47;6.47;;;;;;;19.72;53.85;97290.69;5007305;28;20229;-68
2023/05/20 09:02:38;;;;;;;6.10;4.93;;;;;;;19.89;54.27;97295.44;5007696;28;20682;-68
2023/05/20 09:05:59;;;;;;;7.23;4.47;;;;;;;19.77;54.67;97285.06;5007244;28;20216;-68
2023/05/20 09:09:20;;;;;;;6.10;4.90;;;;;;;19.73;55.14;97291.50;5006071;28;20549;-72
2023/05/20 09:12:40;;;;;;;6.97;4.83;;;;;;;19.55;55.76;97290.31;5004360;28;20676;-78
2023/05/20 09:16:01;;;;;;;8.93;5.27;;;;;;;19.54;56.53;97275.53;5006816;28;20254;-67
2023/05/20 09:19:22;;;;;;;9.50;4.93;;;;;;;19.82;55.38;97285.56;5007636;28;20287;-67
2023/05/20 09:22:43;;;;;;;6.30;5.20;;;;;;;20.06;55.73;97279.19;5004020;28;20197;-70
2023/05/20 09:26:04;;;;;;;9.10;5.47;;;;;;;20.31;54.75;97282.50;5005967;28;20206;-73
2023/05/20 09:29:25;;;;;;;12.97;5.20;;;;;;;20.44;54.73;97284.03;5005656;28;20763;-71
2023/05/20 09:32:45;;;;;;;13.43;5.93;;;;;;;20.49;54.80;97287.09;5007363;28;20298;-69
2023/05/20 09:36:06;;;;;;;6.60;5.07;;;;;;;19.98;54.55;97284.22;4990827;28;20285;-70
2023/05/20 09:39:29;;;;;;;8.10;5.53;;;;;;;19.42;55.18;97287.81;5003929;28;20604;-68
2023/05/20 09:42:59;;;;;;;7.33;5.10;;;;;;;19.42;54.58;97279.94;5004825;28;20190;-70
2023/05/20 09:46:20;;;;;;;6.43;4.53;;;;;;;19.47;55.19;97278.59;5007643;28;20660;-68
2023/05/20 09:49:41;;;;;;;6.20;4.60;;;;;;;19.24;54.91;97270.81;5007271;28;20819;-68
2023/05/20 09:53:01;;;;;;;6.60;5.03;;;;;;;19.39;54.80;97259.97;5003721;28;20201;-68
2023/05/20 09:56:22;;;;;;;7.17;5.17;;;;;;;19.31;55.18;97257.09;5005318;28;20734;-68
2023/05/20 09:59:43;;;;;;;7.43;5.07;;;;;;;19.69;54.19;97248.03;5005512;28;20316;-71
2023/05/20 10:03:03;;;;;;;10.33;5.57;;;;;;;19.95;53.92;97249.44;5006443;28;20196;-69
2023/05/20 10:06:04;;;;;;;10.20;6.03;;;;;;;20.24;55.36;97246.16;5006465;28;20203;-70
2023/05/20 10:09:19;;;;;;;8.87;5.60;;;;;;;19.96;57.07;97203.78;5003474;28;20677;-70
2023/05/20 10:12:46;;;;;;;11.87;6.13;;;;;;;20.33;57.18;97233.22;5007104;28;20244;-68
2023/05/20 10:15:42;;;;;;;8.70;5.47;;;;;;;20.18;57.67;97235.28;5005126;28;20740;-70
2023/05/20 10:18:35;;;;;;;9.33;5.77;;;;;;;19.86;58.87;97234.41;5005618;28;20240;-76
2023/05/20 10:21:56;;;;;;;8.40;6.90;;;;;;;19.96;58.26;97233.56;5005871;28;20725;-74
2023/05/20 10:25:19;;;;;;;7.93;6.13;;;;;;;19.98;58.24;97236.06;5005465;28;20202;-70
2023/05/20 10:28:48;;;;;;;10.30;6.57;;;;;;;20.09;57.54;97236.03;5009480;28;20666;-75
2023/05/20 10:32:08;;;;;;;27.47;9.10;;;;;;;19.65;59.49;97241.34;5010246;28;20201;-68
2023/05/20 10:35:29;;;;;;;11.63;7.03;;;;;;;19.92;58.27;97234.75;5009325;28;20199;-79
2023/05/20 10:38:50;;;;;;;12.93;7.60;;;;;;;19.92;58.22;97220.78;5010223;28;20632;-68
2023/05/20 10:42:11;;;;;;;12.57;7.10;;;;;;;20.12;58.10;97222.63;5010639;28;20941;-69
2023/05/20 10:45:36;;;;;;;7.70;6.40;;;;;;;20.06;57.46;97223.13;5010039;28;20203;-72
2023/05/20 10:49:03;;;;;;;9.17;6.90;;;;;;;19.85;58.17;97212.53;5006866;28;20202;-74
2023/05/20 10:52:24;;;;;;;8.27;5.97;;;;;;;19.92;57.45;97207.63;5009303;28;20570;-70
2023/05/20 10:55:45;;;;;;;10.20;6.77;;;;;;;20.17;57.04;97215.22;5008805;28;20269;-69
2023/05/20 10:59:06;;;;;;;8.27;6.70;;;;;;;20.09;57.08;97222.88;5010683;28;20742;-73
2023/05/20 11:02:27;;;;;;;8.93;6.83;;;;;;;20.26;57.73;97219.75;5006997;28;20735;-71
2023/05/20 11:05:48;;;;;;;8.97;6.03;;;;;;;19.80;56.92;97222.59;5008409;28;20193;-74
2023/05/20 11:09:08;;;;;;;11.43;7.37;;;;;;;19.58;60.23;97216.53;5009803;28;20647;-67
2023/05/20 11:12:30;;;;;;;7.30;6.17;;;;;;;19.47;60.96;97199.00;5010369;28;20289;-67
2023/05/20 11:15:50;;;;;;;9.47;6.43;;;;;;;19.53;58.92;97224.78;5008602;28;20199;-68
2023/05/20 11:19:11;;;;;;;8.63;5.60;;;;;;;19.66;57.54;97208.88;5008014;28;20261;-69
2023/05/20 11:22:32;;;;;;;8.53;5.97;;;;;;;19.97;55.74;97222.06;5009118;28;20185;-76
2023/05/20 11:25:52;;;;;;;9.43;6.00;;;;;;;20.21;55.77;97214.03;5009739;28;20691;-79
2023/05/20 11:29:13;;;;;;;12.70;6.20;;;;;;;20.25;56.85;97216.28;5009795;28;20287;-69
2023/05/20 11:32:34;;;;;;;9.57;6.30;;;;;;;20.38;56.91;97216.09;5008143;28;20677;-68
2023/05/20 11:36:03;;;;;;;8.80;6.00;;;;;;;20.51;54.21;97219.41;5006076;28;20194;-76
2023/05/20 11:39:27;;;;;;;9.20;6.27;;;;;;;20.61;53.97;97217.69;5009436;28;20274;-74
2023/05/20 11:42:48;;;;;;;8.03;6.13;;;;;;;20.59;53.68;97213.50;5009818;28;20277;-69
2023/05/20 11:46:18;;;;;;;14.57;8.00;;;;;;;20.72;53.52;97208.88;5009300;28;20674;-71
2023/05/20 11:49:39;;;;;;;9.80;5.73;;;;;;;20.65;53.26;97207.75;5007136;28;20194;-68
2023/05/20 11:53:00;;;;;;;15.00;8.23;;;;;;;20.62;53.14;97216.72;5006427;28;20198;-68
2023/05/20 11:56:21;;;;;;;14.47;7.80;;;;;;;20.56;53.50;97198.81;5009622;28;20281;-67
2023/05/20 11:59:42;;;;;;;6.57;5.10;;;;;;;20.64;52.04;97192.91;5007601;28;20229;-67
2023/05/20 12:03:02;;;;;;;7.53;6.00;;;;;;;20.46;52.97;97191.81;5008042;28;20717;-75
2023/05/20 12:06:23;;;;;;;10.13;5.97;;;;;;;20.43;53.18;97192.03;5007850;28;20202;-68
2023/05/20 12:09:44;;;;;;;8.87;6.00;;;;;;;20.07;53.42;97185.38;5009140;28;20298;-78
2023/05/20 12:13:07;;;;;;;9.07;6.40;;;;;;;20.17;53.87;97183.66;5007628;28;20198;-74
2023/05/20 12:16:28;;;;;;;10.80;7.40;;;;;;;20.29;54.54;97174.78;5008625;28;20190;-72
2023/05/20 12:19:49;;;;;;;13.07;7.00;;;;;;;20.31;54.39;97183.38;5005649;28;20237;-76
2023/05/20 12:23:10;;;;;;;12.40;7.00;;;;;;;20.34;55.24;97179.69;5008224;28;20664;-75
2023/05/20 12:26:31;;;;;;;12.17;6.90;;;;;;;20.49;54.14;97166.06;5009143;28;20183;-76
2023/05/20 12:29:52;;;;;;;16.60;8.70;;;;;;;20.67;54.48;97159.25;5009387;28;20194;-75
2023/05/20 12:33:13;;;;;;;12.63;6.93;;;;;;;20.43;54.42;97166.59;5007253;28;20214;-77
2023/05/20 12:36:34;;;;;;;19.23;8.83;;;;;;;20.54;54.49;97157.81;5005264;28;20329;-68
2023/05/20 12:39:54;;;;;;;19.63;12.63;;;;;;;20.17;57.21;97145.00;5008154;28;20230;-68
2023/05/20 12:43:15;;;;;;;15.07;9.17;;;;;;;20.41;56.33;97144.00;5008560;28;20665;-69
2023/05/20 12:46:35;;;;;;;13.83;8.60;;;;;;;20.56;54.45;97137.44;5006064;28;20298;-67
2023/05/20 12:49:56;;;;;;;11.90;6.50;;;;;;;20.78;51.38;97124.13;5003999;28;20252;-67
2023/05/20 12:53:17;;;;;;;9.40;5.63;;;;;;;21.22;50.80;97122.97;5007555;28;20191;-66
2023/05/20 12:56:39;;;;;;;13.27;8.40;;;;;;;21.53;52.44;97119.34;5008409;28;20187;-70
2023/05/20 12:59:59;;;;;;;13.43;8.43;;;;;;;21.53;50.87;97111.44;5008221;28;20227;-79
2023/05/20 13:03:20;;;;;;;8.67;6.20;;;;;;;21.65;49.42;97087.44;5006913;28;20611;-77
2023/05/20 13:06:41;;;;;;;9.37;5.40;;;;;;;21.98;47.78;97102.06;5004511;28;20667;-69
2023/05/20 13:10:02;;;;;;;7.90;5.07;;;;;;;22.10;47.89;97102.75;5008430;28;20183;-74
2023/05/20 13:13:22;;;;;;;7.80;5.10;;;;;;;22.01;48.00;97101.78;5008100;28;20210;-74
2023/05/20 13:16:43;;;;;;;11.57;5.67;;;;;;;22.13;48.94;97097.22;5004861;28;20571;-75
2023/05/20 13:20:04;;;;;;;8.73;5.07;;;;;;;22.43;48.51;97084.69;5005922;28;20699;-74
2023/05/20 13:23:25;;;;;;;8.63;5.20;;;;;;;22.55;47.46;97094.09;5007591;28;20251;-68
2023/05/20 13:26:45;;;;;;;8.47;6.10;;;;;;;22.62;47.04;97084.69;5006823;28;20192;-68
2023/05/20 13:30:06;;;;;;;7.53;5.30;;;;;;;22.34;48.80;97090.78;5006312;28;20183;-67
2023/05/20 13:33:27;;;;;;;6.73;4.97;;;;;;;22.14;49.14;97083.88;5004286;28;20189;-67
2023/05/20 13:36:47;;;;;;;8.00;5.40;;;;;;;22.33;48.29;97073.31;5004598;28;20199;-66
2023/05/20 13:40:08;;;;;;;7.10;5.90;;;;;;;21.83;48.59;96990.91;5005552;28;20234;-66
2023/05/20 13:43:29;;;;;;;7.57;4.77;;;;;;;22.46;48.08;97060.63;5007310;28;20192;-67
2023/05/20 13:46:49;;;;;;;7.43;5.40;;;;;;;22.45;48.32;97053.69;5006153;28;20191;-66
2023/05/20 13:50:10;;;;;;;6.80;5.00;;;;;;;22.61;48.44;97053.13;5006352;28;20199;-71
2023/05/20 13:53:31;;;;;;;8.90;5.60;;;;;;;22.72;47.61;97039.75;5007470;28;20202;-67
2023/05/20 13:56:51;;;;;;;9.47;5.77;;;;;;;22.84;47.78;97037.75;5007593;28;20200;-66
2023/05/20 14:00:12;;;;;;;9.40;6.50;;;;;;;22.74;48.35;97031.66;5006594;28;20310;-67
2023/05/20 14:03:33;;;;;;;7.50;4.93;;;;;;;22.80;47.84;97029.28;5005703;28;20204;-70
2023/05/20 14:06:53;;;;;;;8.87;5.70;;;;;;;22.87;48.11;97026.91;5006784;28;20192;-69
2023/05/20 14:10:14;;;;;;;8.80;5.53;;;;;;;22.35;49.42;97025.66;5006938;28;20280;-71
2023/05/20 14:13:35;;;;;;;9.63;5.37;;;;;;;21.91;50.76;97031.56;5007383;28;20295;-67
2023/05/20 14:16:55;;;;;;;7.33;4.97;;;;;;;22.10;50.74;97020.97;5006201;28;20199;-68
2023/05/20 14:20:16;;;;;;;7.43;5.13;;;;;;;22.04;50.59;97014.47;5005637;28;20286;-69
2023/05/20 14:23:37;;;;;;;8.30;5.43;;;;;;;21.99;50.58;97023.78;5007307;28;20221;-68
2023/05/20 14:26:57;;;;;;;7.57;5.70;;;;;;;21.96;51.31;97029.34;5007885;28;20195;-68
2023/05/20 14:30:18;;;;;;;5.93;5.00;;;;;;;21.91;50.84;97035.03;5006503;28;20195;-68
2023/05/20 14:33:39;;;;;;;6.93;5.23;;;;;;;21.99;51.03;97034.34;5005762;28;20571;-68
2023/05/20 14:37:06;;;;;;;7.77;5.27;;;;;;;21.80;50.45;97032.50;5006651;28;20195;-68
2023/05/20 14:40:27;;;;;;;12.23;5.87;;;;;;;21.46;51.71;97039.97;5007232;28;20218;-71
2023/05/20 14:43:47;;;;;;;8.73;5.97;;;;;;;21.44;51.93;97035.81;5007098;28;20187;-68
2023/05/20 14:47:08;;;;;;;8.43;6.03;;;;;;;21.20;53.11;97045.91;5005656;28;20222;-68
2023/05/20 14:50:29;;;;;;;5.37;3.53;;;;;;;19.99;58.57;97061.59;5003917;28;20273;-70
2023/05/20 14:53:49;;;;;;;6.20;3.50;;;;;;;19.26;63.90;97043.06;5007246;28;20194;-67
2023/05/20 14:57:10;;;;;;;4.50;3.37;;;;;;;18.51;66.20;97049.91;5007306;28;20594;-68
2023/05/20 15:00:31;;;;;;;7.10;4.20;;;;;;;18.25;67.09;97045.81;5006243;28;20783;-67
2023/05/20 15:03:52;;;;;;;3.80;3.50;;;;;;;18.12;66.19;97039.81;5005714;28;20201;-67
2023/05/20 15:07:12;;;;;;;4.17;3.37;;;;;;;17.93;67.20;97034.31;5004887;28;20617;-79
2023/05/20 15:10:33;;;;;;;17.80;9.47;;;;;;;17.85;67.77;97040.13;5006023;28;20195;-78
2023/05/20 15:13:54;;;;;;;30.87;14.97;;;;;;;17.95;67.73;97032.41;5009552;28;20249;-77
2023/05/20 15:17:15;;;;;;;14.87;9.10;;;;;;;17.98;68.04;97034.78;5009027;28;20660;-67
2023/05/20 15:20:35;;;;;;;37.97;17.53;;;;;;;18.03;69.33;97025.66;5009342;28;20329;-67
2023/05/20 15:23:56;;;;;;;53.90;27.53;;;;;;;17.98;68.51;96991.09;5010537;28;20199;-72
2023/05/20 15:27:17;;;;;;;6.97;4.40;;;;;;;18.12;66.82;97018.84;5010540;28;20200;-68
2023/05/20 15:30:37;;;;;;;5.50;4.30;;;;;;;17.98;67.50;97026.94;5009237;28;20200;-71
2023/05/20 15:33:58;;;;;;;4.57;4.00;;;;;;;18.08;66.91;97023.50;5008911;28;20196;-70
2023/05/20 15:37:19;;;;;;;5.93;4.30;;;;;;;18.21;66.88;97018.16;5010336;28;20192;-68
2023/05/20 15:40:39;;;;;;;6.80;5.13;;;;;;;18.52;67.99;97017.50;5010219;28;20224;-68
2023/05/20 15:44:00;;;;;;;5.40;4.47;;;;;;;18.56;67.83;96972.56;5009569;28;20660;-72